Wetterstation Vordersexau
Wetterdaten: Woche 09.07.18 - 15.07.18 (KW28)
Datum Zeit Temp. A. Feuchte A. Luftdruck Regen Wind Richtung Taupunkt Windchill Windben
09.07.2018 00:00 17,5 C 69 % 1018,1 hPa 0,0 l/m 0,0 km/h SO 11,7 C 17,5 C 0,0 km/h
09.07.2018 01:00 16,6 C 70 % 1018,0 hPa 0,0 l/m 0,0 km/h O-NO 11,1 C 16,6 C 0,0 km/h
09.07.2018 02:00 15,2 C 74 % 1018,2 hPa 0,0 l/m 0,0 km/h O-NO 10,6 C 15,2 C 0,0 km/h
09.07.2018 03:00 14,1 C 77 % 1017,9 hPa 0,0 l/m 0,0 km/h O-NO 10,1 C 14,1 C 0,0 km/h
09.07.2018 04:00 12,9 C 79 % 1017,8 hPa 0,0 l/m 0,0 km/h O-NO 9,3 C 12,9 C 0,0 km/h
09.07.2018 05:00 12,7 C 79 % 1017,8 hPa 0,0 l/m 0,0 km/h O-NO 9,2 C 12,7 C 0,0 km/h
09.07.2018 06:00 13,2 C 80 % 1017,9 hPa 0,0 l/m 0,0 km/h O-SO 9,8 C 13,2 C 0,0 km/h
09.07.2018 07:00 15,8 C 74 % 1018,0 hPa 0,0 l/m 0,0 km/h NW 11,2 C 15,8 C 0,0 km/h
09.07.2018 08:00 17,8 C 68 % 1018,0 hPa 0,0 l/m 0,0 km/h W-SW 11,8 C 17,8 C 0,0 km/h
09.07.2018 09:00 19,6 C 63 % 1017,7 hPa 0,0 l/m 0,0 km/h W-SW 12,4 C 19,6 C 0,0 km/h
09.07.2018 10:00 21,5 C 57 % 1017,5 hPa 0,0 l/m 1,9 km/h W 12,6 C 21,5 C 1,1 km/h
09.07.2018 11:00 23,6 C 51 % 1017,1 hPa 0,0 l/m 0,0 km/h NW 12,9 C 23,6 C 0,0 km/h
09.07.2018 12:00 25,9 C 43 % 1016,7 hPa 0,0 l/m 15,6 km/h N 12,3 C 24,3 C 8,6 km/h
09.07.2018 13:00 26,7 C 42 % 1016,2 hPa 0,0 l/m 0,0 km/h N-NW 12,7 C 26,7 C 0,0 km/h
09.07.2018 14:00 27,3 C 39 % 1015,9 hPa 0,0 l/m 0,0 km/h W-NW 12,1 C 27,3 C 0,0 km/h
09.07.2018 15:00 27,9 C 40 % 1015,5 hPa 0,0 l/m 0,0 km/h N 13,0 C 27,9 C 0,0 km/h
09.07.2018 16:00 28,2 C 38 % 1015,1 hPa 0,0 l/m 0,0 km/h N-NW 12,5 C 28,2 C 0,0 km/h
09.07.2018 17:00 27,4 C 38 % 1014,9 hPa 0,0 l/m 2,6 km/h N 11,8 C 27,4 C 1,4 km/h
09.07.2018 18:00 26,4 C 41 % 1014,7 hPa 0,0 l/m 12,3 km/h N 12,1 C 25,4 C 6,8 km/h
09.07.2018 19:00 25,6 C 44 % 1014,8 hPa 0,0 l/m 0,0 km/h NO 12,4 C 25,6 C 0,0 km/h
09.07.2018 20:00 24,4 C 48 % 1014,9 hPa 0,0 l/m 0,0 km/h NO 12,7 C 24,4 C 0,0 km/h
09.07.2018 21:00 22,6 C 54 % 1015,3 hPa 0,0 l/m 0,0 km/h NO 12,8 C 22,6 C 0,0 km/h
09.07.2018 22:00 20,5 C 62 % 1015,5 hPa 0,0 l/m 0,0 km/h NO 13,0 C 20,5 C 0,0 km/h
09.07.2018 23:00 19,1 C 67 % 1015,5 hPa 0,0 l/m 0,0 km/h NO 12,8 C 19,1 C 0,0 km/h
10.07.2018 00:00 18,1 C 69 % 1015,2 hPa 0,0 l/m 0,0 km/h NO 12,3 C 18,1 C 0,0 km/h
10.07.2018 01:00 16,6 C 72 % 1015,4 hPa 0,0 l/m 0,0 km/h O-SO 11,5 C 16,6 C 0,0 km/h
10.07.2018 02:00 16,1 C 74 % 1015,0 hPa 0,0 l/m 0,0 km/h O-SO 11,5 C 16,1 C 0,0 km/h
10.07.2018 03:00 15,9 C 75 % 1014,8 hPa 0,0 l/m 0,0 km/h O-SO 11,5 C 15,9 C 0,0 km/h
10.07.2018 04:00 15,0 C 77 % 1014,7 hPa 0,0 l/m 0,0 km/h O-SO 11,0 C 15,0 C 0,0 km/h
10.07.2018 05:00 14,7 C 78 % 1015,0 hPa 0,0 l/m 0,0 km/h O-SO 10,9 C 14,7 C 0,0 km/h
10.07.2018 06:00 14,7 C 79 % 1015,1 hPa 0,0 l/m 0,0 km/h O-SO 11,1 C 14,7 C 0,0 km/h
10.07.2018 07:00 16,1 C 78 % 1014,7 hPa 0,0 l/m 0,0 km/h NO 12,3 C 16,1 C 0,0 km/h
10.07.2018 08:00 17,8 C 74 % 1014,8 hPa 0,0 l/m 0,0 km/h O-NO 13,1 C 17,8 C 0,0 km/h
10.07.2018 09:00 18,9 C 69 % 1014,8 hPa 0,0 l/m 0,0 km/h N 13,1 C 18,9 C 0,0 km/h
10.07.2018 10:00 20,6 C 65 % 1014,5 hPa 0,0 l/m 0,0 km/h NO 13,8 C 20,6 C 0,0 km/h
10.07.2018 11:00 21,2 C 63 % 1014,3 hPa 0,0 l/m 0,0 km/h NO 13,9 C 21,2 C 0,0 km/h
10.07.2018 12:00 22,4 C 59 % 1013,9 hPa 0,0 l/m 0,0 km/h SW 14,0 C 22,4 C 0,0 km/h
10.07.2018 13:00 20,9 C 60 % 1013,8 hPa 0,0 l/m 0,0 km/h O-NO 12,8 C 20,9 C 0,0 km/h
10.07.2018 14:00 19,8 C 75 % 1013,6 hPa 0,0 l/m 0,0 km/h NO 15,2 C 19,8 C 0,0 km/h
10.07.2018 15:00 21,3 C 66 % 1013,3 hPa 0,0 l/m 0,0 km/h W-SW 14,7 C 21,3 C 0,0 km/h
10.07.2018 16:00 22,1 C 59 % 1013,0 hPa 0,0 l/m 0,0 km/h NW 13,7 C 22,1 C 0,0 km/h
10.07.2018 17:00 21,7 C 55 % 1012,9 hPa 0,0 l/m 1,9 km/h N-NO 12,3 C 21,7 C 1,1 km/h
10.07.2018 18:00 21,3 C 53 % 1012,9 hPa 0,0 l/m 0,0 km/h N 11,3 C 21,3 C 0,0 km/h
10.07.2018 19:00 20,7 C 51 % 1013,2 hPa 0,0 l/m 0,0 km/h N-NO 10,2 C 20,7 C 0,0 km/h
10.07.2018 20:00 19,9 C 52 % 1013,5 hPa 0,0 l/m 1,3 km/h N-NO 9,7 C 19,9 C 0,7 km/h
10.07.2018 21:00 18,9 C 54 % 1014,0 hPa 0,0 l/m 0,0 km/h N-NO 9,4 C 18,9 C 0,0 km/h
10.07.2018 22:00 17,8 C 57 % 1014,5 hPa 0,0 l/m 0,0 km/h N-NO 9,2 C 17,8 C 0,0 km/h
10.07.2018 23:00 16,1 C 64 % 1014,4 hPa 0,0 l/m 0,0 km/h N-NO 9,3 C 16,1 C 0,0 km/h
11.07.2018 00:00 15,3 C 69 % 1014,4 hPa 0,0 l/m 0,0 km/h N-NO 9,6 C 15,3 C 0,0 km/h
11.07.2018 01:00 13,9 C 73 % 1014,1 hPa 0,0 l/m 0,0 km/h N-NO 9,1 C 13,9 C 0,0 km/h
11.07.2018 02:00 12,9 C 76 % 1014,0 hPa 0,0 l/m 0,0 km/h N-NO 8,8 C 12,9 C 0,0 km/h
11.07.2018 03:00 12,4 C 78 % 1013,9 hPa 0,0 l/m 0,0 km/h N-NO 8,7 C 12,4 C 0,0 km/h
11.07.2018 04:00 12,4 C 80 % 1013,9 hPa 0,0 l/m 0,0 km/h N-NO 9,0 C 12,4 C 0,0 km/h
11.07.2018 05:00 12,4 C 81 % 1013,8 hPa 0,0 l/m 0,0 km/h NO 9,2 C 12,4 C 0,0 km/h
11.07.2018 06:00 12,7 C 81 % 1014,0 hPa 0,0 l/m 0,0 km/h NO 9,5 C 12,7 C 0,0 km/h
11.07.2018 07:00 13,9 C 80 % 1014,0 hPa 0,0 l/m 0,0 km/h NO 10,5 C 13,9 C 0,0 km/h
11.07.2018 08:00 15,6 C 76 % 1014,4 hPa 0,0 l/m 0,0 km/h S 11,4 C 15,6 C 0,0 km/h
11.07.2018 09:00 17,3 C 69 % 1014,4 hPa 0,0 l/m 0,0 km/h S-SW 11,6 C 17,3 C 0,0 km/h
11.07.2018 10:00 18,4 C 65 % 1014,3 hPa 0,0 l/m 7,1 km/h W-SW 11,7 C 18,1 C 4,0 km/h
11.07.2018 11:00 18,8 C 60 % 1014,3 hPa 0,0 l/m 0,0 km/h W 10,9 C 18,8 C 0,0 km/h
11.07.2018 12:00 20,6 C 54 % 1014,2 hPa 0,0 l/m 0,0 km/h N-NO 11,0 C 20,6 C 0,0 km/h
11.07.2018 13:00 21,1 C 52 % 1014,0 hPa 0,0 l/m 0,0 km/h N-NW 10,9 C 21,1 C 0,0 km/h
11.07.2018 14:00 21,5 C 50 % 1014,1 hPa 0,0 l/m 9,7 km/h W 10,6 C 20,4 C 5,4 km/h
11.07.2018 15:00 22,1 C 48 % 1013,9 hPa 0,0 l/m 0,0 km/h N-NO 10,6 C 22,1 C 0,0 km/h
11.07.2018 16:00 22,3 C 47 % 1013,8 hPa 0,0 l/m 0,0 km/h NW 10,4 C 22,3 C 0,0 km/h
11.07.2018 17:00 22,8 C 46 % 1013,8 hPa 0,0 l/m 0,0 km/h NW 10,6 C 22,8 C 0,0 km/h
11.07.2018 18:00 21,9 C 46 % 1014,0 hPa 0,0 l/m 8,4 km/h N-NW 9,7 C 21,2 C 4,7 km/h
11.07.2018 19:00 21,5 C 47 % 1014,0 hPa 0,0 l/m 0,0 km/h N-NO 9,7 C 21,5 C 0,0 km/h
11.07.2018 20:00 20,5 C 48 % 1014,2 hPa 0,0 l/m 0,0 km/h O-NO 9,1 C 20,5 C 0,0 km/h
11.07.2018 21:00 16,9 C 60 % 1014,7 hPa 0,0 l/m 0,0 km/h O-NO 9,1 C 16,9 C 0,0 km/h
11.07.2018 22:00 15,2 C 66 % 1014,8 hPa 0,0 l/m 0,0 km/h O-NO 8,9 C 15,2 C 0,0 km/h
11.07.2018 23:00 14,1 C 70 % 1015,0 hPa 0,0 l/m 0,0 km/h O 8,7 C 14,1 C 0,0 km/h
12.07.2018 00:00 13,4 C 74 % 1015,0 hPa 0,0 l/m 0,0 km/h O 8,9 C 13,4 C 0,0 km/h
12.07.2018 01:00 12,5 C 76 % 1015,0 hPa 0,0 l/m 0,0 km/h O-NO 8,4 C 12,5 C 0,0 km/h
12.07.2018 02:00 12,1 C 78 % 1014,8 hPa 0,0 l/m 0,0 km/h O 8,4 C 12,1 C 0,0 km/h
12.07.2018 03:00 11,8 C 78 % 1014,8 hPa 0,0 l/m 0,0 km/h SO 8,1 C 11,8 C 0,0 km/h
12.07.2018 04:00 11,4 C 80 % 1014,6 hPa 0,0 l/m 0,0 km/h O 8,1 C 11,4 C 0,0 km/h
12.07.2018 05:00 10,9 C 81 % 1014,9 hPa 0,0 l/m 0,0 km/h O-SO 7,8 C 10,9 C 0,0 km/h
12.07.2018 06:00 11,7 C 81 % 1014,8 hPa 0,0 l/m 0,0 km/h SO 8,5 C 11,7 C 0,0 km/h
12.07.2018 07:00 13,8 C 78 % 1015,2 hPa 0,0 l/m 0,0 km/h O-SO 10,0 C 13,8 C 0,0 km/h
12.07.2018 08:00 15,9 C 72 % 1015,5 hPa 0,0 l/m 0,0 km/h NO 10,9 C 15,9 C 0,0 km/h
12.07.2018 09:00 18,2 C 66 % 1015,1 hPa 0,0 l/m 0,0 km/h W-SW 11,7 C 18,2 C 0,0 km/h
12.07.2018 10:00 20,3 C 59 % 1015,1 hPa 0,0 l/m 0,0 km/h NW 12,0 C 20,3 C 0,0 km/h
12.07.2018 11:00 22,4 C 56 % 1015,1 hPa 0,0 l/m 10,4 km/h N-NO 13,2 C 21,2 C 5,8 km/h
12.07.2018 12:00 23,4 C 54 % 1015,1 hPa 0,0 l/m 9,1 km/h W 13,6 C 22,6 C 5,0 km/h
12.07.2018 13:00 24,1 C 52 % 1014,7 hPa 0,0 l/m 0,0 km/h NW 13,6 C 24,1 C 0,0 km/h
12.07.2018 14:00 25,3 C 49 % 1014,5 hPa 0,0 l/m 5,2 km/h N 13,8 C 25,3 C 2,9 km/h
12.07.2018 15:00 25,5 C 45 % 1014,5 hPa 0,0 l/m 20,7 km/h W-SW 12,7 C 23,2 C 11,5 km/h
12.07.2018 16:00 25,8 C 44 % 1014,4 hPa 0,0 l/m 7,8 km/h N-NW 12,6 C 25,5 C 4,3 km/h
12.07.2018 17:00 26,1 C 43 % 1014,2 hPa 0,0 l/m 13,0 km/h N 12,5 C 24,9 C 7,2 km/h
12.07.2018 18:00 25,9 C 43 % 1014,3 hPa 0,0 l/m 0,0 km/h N-NW 12,3 C 25,9 C 0,0 km/h
12.07.2018 19:00 24,7 C 46 % 1014,5 hPa 0,0 l/m 0,0 km/h N-NW 12,3 C 24,7 C 0,0 km/h
12.07.2018 20:00 23,4 C 49 % 1014,7 hPa 0,0 l/m 0,0 km/h N 12,1 C 23,4 C 0,0 km/h
12.07.2018 21:00 19,9 C 61 % 1015,3 hPa 0,0 l/m 0,0 km/h N 12,2 C 19,9 C 0,0 km/h
12.07.2018 22:00 18,2 C 65 % 1015,8 hPa 0,0 l/m 0,0 km/h N 11,5 C 18,2 C 0,0 km/h
12.07.2018 23:00 16,9 C 70 % 1016,0 hPa 0,0 l/m 0,0 km/h N 11,4 C 16,9 C 0,0 km/h
13.07.2018 00:00 15,9 C 74 % 1016,1 hPa 0,0 l/m 0,0 km/h N-NO 11,3 C 15,9 C 0,0 km/h
13.07.2018 01:00 15,2 C 75 % 1016,2 hPa 0,0 l/m 0,0 km/h NO 10,8 C 15,2 C 0,0 km/h
13.07.2018 02:00 14,8 C 77 % 1016,3 hPa 0,0 l/m 0,0 km/h NO 10,8 C 14,8 C 0,0 km/h
13.07.2018 03:00 13,8 C 80 % 1016,4 hPa 0,0 l/m 0,0 km/h O-NO 10,4 C 13,8 C 0,0 km/h
13.07.2018 04:00 13,4 C 80 % 1016,4 hPa 0,0 l/m 0,0 km/h O-NO 10,0 C 13,4 C 0,0 km/h
13.07.2018 05:00 12,9 C 82 % 1016,8 hPa 0,0 l/m 0,0 km/h O-NO 9,9 C 12,9 C 0,0 km/h
13.07.2018 06:00 13,3 C 82 % 1016,9 hPa 0,0 l/m 0,0 km/h O-NO 10,3 C 13,3 C 0,0 km/h
13.07.2018 07:00 15,8 C 80 % 1017,0 hPa 0,0 l/m 0,0 km/h O-NO 12,4 C 15,8 C 0,0 km/h
13.07.2018 08:00 18,6 C 73 % 1016,9 hPa 0,0 l/m 0,0 km/h W-NW 13,7 C 18,6 C 0,0 km/h
13.07.2018 09:00 20,6 C 67 % 1016,8 hPa 0,0 l/m 0,0 km/h W-SW 14,3 C 20,6 C 0,0 km/h
13.07.2018 10:00 22,4 C 61 % 1016,9 hPa 0,0 l/m 8,4 km/h W-SW 14,5 C 21,7 C 4,7 km/h
13.07.2018 11:00 24,9 C 54 % 1016,6 hPa 0,0 l/m 11,0 km/h W-SW 14,9 C 23,9 C 6,1 km/h
13.07.2018 12:00 26,1 C 48 % 1016,5 hPa 0,0 l/m 3,2 km/h W 14,2 C 26,1 C 1,8 km/h
13.07.2018 13:00 27,3 C 43 % 1016,1 hPa 0,0 l/m 0,0 km/h W-SW 13,6 C 27,3 C 0,0 km/h
13.07.2018 14:00 28,1 C 38 % 1015,5 hPa 0,0 l/m 14,3 km/h W-SW 12,4 C 27,1 C 7,9 km/h
13.07.2018 15:00 28,9 C 36 % 1015,4 hPa 0,0 l/m 0,0 km/h N 12,3 C 28,9 C 0,0 km/h
13.07.2018 16:00 29,3 C 34 % 1014,9 hPa 0,0 l/m 0,0 km/h W-NW 11,8 C 29,3 C 0,0 km/h
13.07.2018 17:00 29,4 C 33 % 1014,6 hPa 0,0 l/m 1,9 km/h W-NW 11,4 C 29,4 C 1,1 km/h
13.07.2018 18:00 29,3 C 33 % 1014,5 hPa 0,0 l/m 0,0 km/h N-NW 11,3 C 29,3 C 0,0 km/h
13.07.2018 19:00 27,9 C 36 % 1014,5 hPa 0,0 l/m 0,0 km/h N 11,4 C 27,9 C 0,0 km/h
13.07.2018 20:00 25,9 C 44 % 1014,5 hPa 0,0 l/m 0,0 km/h N-NO 12,7 C 25,9 C 0,0 km/h
13.07.2018 21:00 22,3 C 53 % 1015,1 hPa 0,0 l/m 0,0 km/h O-NO 12,2 C 22,3 C 0,0 km/h
13.07.2018 22:00 20,5 C 57 % 1015,7 hPa 0,0 l/m 0,0 km/h O-NO 11,7 C 20,5 C 0,0 km/h
13.07.2018 23:00 19,3 C 63 % 1015,5 hPa 0,0 l/m 0,0 km/h O-NO 12,1 C 19,3 C 0,0 km/h
14.07.2018 00:00 18,1 C 66 % 1015,7 hPa 0,0 l/m 0,0 km/h O-NO 11,6 C 18,1 C 0,0 km/h
14.07.2018 01:00 17,3 C 69 % 1015,9 hPa 0,0 l/m 0,0 km/h SO 11,6 C 17,3 C 0,0 km/h
14.07.2018 02:00 16,8 C 71 % 1015,8 hPa 0,0 l/m 0,0 km/h O-SO 11,5 C 16,8 C 0,0 km/h
14.07.2018 03:00 16,1 C 74 % 1015,9 hPa 0,0 l/m 0,0 km/h O-SO 11,5 C 16,1 C 0,0 km/h
14.07.2018 04:00 15,1 C 77 % 1016,0 hPa 0,0 l/m 0,0 km/h O-SO 11,1 C 15,1 C 0,0 km/h
14.07.2018 05:00 14,2 C 79 % 1016,0 hPa 0,0 l/m 0,0 km/h O-NO 10,6 C 14,2 C 0,0 km/h
14.07.2018 06:00 15,1 C 79 % 1016,2 hPa 0,0 l/m 0,0 km/h O-SO 11,5 C 15,1 C 0,0 km/h
14.07.2018 07:00 17,6 C 74 % 1016,5 hPa 0,0 l/m 0,0 km/h O-SO 12,9 C 17,6 C 0,0 km/h
14.07.2018 08:00 20,3 C 67 % 1016,5 hPa 0,0 l/m 0,0 km/h NW 14,0 C 20,3 C 0,0 km/h
14.07.2018 09:00 22,2 C 61 % 1016,5 hPa 0,0 l/m 0,0 km/h W-SW 14,3 C 22,2 C 0,0 km/h
14.07.2018 10:00 23,9 C 56 % 1016,1 hPa 0,0 l/m 0,0 km/h N-NO 14,6 C 23,9 C 0,0 km/h
14.07.2018 11:00 26,6 C 48 % 1015,6 hPa 0,0 l/m 13,6 km/h W-SW 14,7 C 25,4 C 7,6 km/h
14.07.2018 12:00 27,8 C 46 % 1015,1 hPa 0,0 l/m 0,0 km/h W-SW 15,1 C 27,8 C 0,0 km/h
14.07.2018 13:00 28,9 C 42 % 1014,6 hPa 0,0 l/m 26,6 km/h N 14,7 C 27,4 C 14,8 km/h
14.07.2018 14:00 29,7 C 39 % 1014,0 hPa 0,0 l/m 6,5 km/h W 14,2 C 29,7 C 3,6 km/h
14.07.2018 15:00 29,5 C 39 % 1013,9 hPa 0,0 l/m 0,0 km/h N 14,1 C 29,5 C 0,0 km/h
14.07.2018 16:00 29,8 C 37 % 1013,5 hPa 0,0 l/m 0,0 km/h W-NW 13,5 C 29,8 C 0,0 km/h
14.07.2018 17:00 30,1 C 37 % 1013,3 hPa 0,0 l/m 0,0 km/h N-NW 13,8 C 30,1 C 0,0 km/h
14.07.2018 18:00 29,4 C 37 % 1012,9 hPa 0,0 l/m 0,0 km/h N-NW 13,2 C 29,4 C 0,0 km/h
14.07.2018 19:00 28,3 C 39 % 1012,7 hPa 0,0 l/m 0,0 km/h N-NW 13,0 C 28,3 C 0,0 km/h
14.07.2018 20:00 26,8 C 45 % 1012,7 hPa 0,0 l/m 0,0 km/h NO 13,9 C 26,8 C 0,0 km/h
14.07.2018 21:00 22,9 C 53 % 1013,2 hPa 0,0 l/m 0,0 km/h O 12,8 C 22,9 C 0,0 km/h
14.07.2018 22:00 21,6 C 58 % 1013,1 hPa 0,0 l/m 0,0 km/h O-NO 13,0 C 21,6 C 0,0 km/h
14.07.2018 23:00 20,5 C 63 % 1013,5 hPa 0,0 l/m 0,0 km/h SO 13,2 C 20,5 C 0,0 km/h
15.07.2018 00:00 20,1 C 65 % 1013,5 hPa 0,0 l/m 0,0 km/h O-NO 13,3 C 20,1 C 0,0 km/h
15.07.2018 01:00 19,6 C 68 % 1013,2 hPa 0,0 l/m 0,0 km/h O-NO 13,5 C 19,6 C 0,0 km/h
15.07.2018 02:00 18,6 C 72 % 1012,9 hPa 0,5 l/m 0,0 km/h SO 13,4 C 18,6 C 0,0 km/h
15.07.2018 03:00 19,1 C 77 % 1013,1 hPa 0,0 l/m 0,0 km/h O-SO 15,0 C 19,1 C 0,0 km/h
15.07.2018 04:00 17,9 C 81 % 1013,6 hPa 0,0 l/m 0,0 km/h NO 14,6 C 17,9 C 0,0 km/h
15.07.2018 05:00 17,8 C 82 % 1013,6 hPa 0,0 l/m 0,0 km/h SO 14,7 C 17,8 C 0,0 km/h
15.07.2018 06:00 17,8 C 83 % 1014,3 hPa 0,0 l/m 0,0 km/h O-SO 14,9 C 17,8 C 0,0 km/h
15.07.2018 07:00 17,4 C 82 % 1013,6 hPa 0,5 l/m 0,0 km/h SO 14,3 C 17,4 C 0,0 km/h
15.07.2018 08:00 18,8 C 82 % 1013,2 hPa 0,0 l/m 1,9 km/h N-NW 15,7 C 18,8 C 1,1 km/h
15.07.2018 09:00 21,9 C 75 % 1013,0 hPa 0,0 l/m 0,0 km/h NW 17,3 C 21,9 C 0,0 km/h
15.07.2018 10:00 23,9 C 66 % 1013,2 hPa 0,0 l/m 0,0 km/h W-SW 17,1 C 23,9 C 0,0 km/h
15.07.2018 11:00 25,3 C 61 % 1012,9 hPa 0,5 l/m 6,5 km/h W-NW 17,2 C 25,3 C 3,6 km/h
15.07.2018 12:00 26,8 C 55 % 1012,2 hPa 0,0 l/m 0,0 km/h N-NW 17,0 C 26,8 C 0,0 km/h
15.07.2018 13:00 28,3 C 50 % 1011,7 hPa 0,0 l/m 16,8 km/h NW 16,9 C 27,2 C 9,4 km/h
15.07.2018 14:00 27,9 C 46 % 1011,6 hPa 0,0 l/m 0,0 km/h N-NW 15,2 C 27,9 C 0,0 km/h
15.07.2018 15:00 28,8 C 42 % 1010,9 hPa 0,0 l/m 5,8 km/h N-NW 14,6 C 28,8 C 3,2 km/h
15.07.2018 16:00 28,3 C 42 % 1010,8 hPa 0,0 l/m 9,7 km/h N-NW 14,1 C 27,8 C 5,4 km/h
15.07.2018 17:00 27,2 C 48 % 1010,4 hPa 0,0 l/m 8,4 km/h W 15,2 C 26,8 C 4,7 km/h
15.07.2018 18:00 24,4 C 60 % 1011,2 hPa 0,0 l/m 0,0 km/h O-SO 16,1 C 24,4 C 0,0 km/h
15.07.2018 19:00 23,6 C 59 % 1011,6 hPa 0,0 l/m 0,0 km/h W-SW 15,1 C 23,6 C 0,0 km/h
15.07.2018 20:00 21,9 C 69 % 1012,6 hPa 0,0 l/m 0,0 km/h SO 15,9 C 21,9 C 0,0 km/h
15.07.2018 21:00 20,2 C 74 % 1012,8 hPa 0,0 l/m 0,0 km/h SO 15,4 C 20,2 C 0,0 km/h
15.07.2018 22:00 19,6 C 76 % 1013,0 hPa 0,0 l/m 0,0 km/h W-SW 15,2 C 19,6 C 0,0 km/h
15.07.2018 23:00 18,7 C 78 % 1013,2 hPa 0,0 l/m 0,0 km/h W-SW 14,8 C 18,7 C 0,0 km/h
Min-Datum _ 12.07.18 13.07.18 15.07.18 - 09.07.18 - 12.07.18 12.07.18 09.07.18
_ Min-Zeit 05:53 17:53 17:53 - 00:53 - 05:53 05:53 00:53
Minimum _ 10,9 C 33 % 1010,4 hPa - 0,0 km/h - 7,8 C 10,9 C 0,0 km/h
Max-Datum _ 14.07.18 15.07.18 09.07.18 15.07.18 14.07.18 - 15.07.18 14.07.18 14.07.18
_ Max-Zeit 17:53 06:53 02:53 02:53 13:53 - 09:53 17:53 13:53
Maximum _ 30,1 C 83 % 1018,2 hPa 0,5 l/m 26,6 km/h
N
- 17,3 C 30,1 C 14,8 km/h
N
Durchschnitt _ 20,4 C 62 % 1014,7 hPa #1,6 l/m 1,6 km/h O-NO 12,2 C 20,2 C 0,9 km/h
www.sexauwetter.de